Time;durP1;ratioP1;P1;durP2;ratioP2;P2;SDS_P1;SDS_P2;PMS_P1;PMS_P2;Temp;Humidity;BMP_temperature;BMP_pressure;BME280_temperature;BME280_humidity;BME280_pressure;Samples;Min_cycle;Max_cycle;Signal;HPM_P1;HPM_P2
2023/01/06 00:01:33;;;;;;;6.43;3.28;;;11.00;91.80;;;;;;5097163;28;20043;-73
2023/01/06 00:04:00;;;;;;;5.20;2.80;;;11.00;91.80;;;;;;5080586;28;20103;-73
2023/01/06 00:06:27;;;;;;;4.15;2.20;;;11.00;91.80;;;;;;5100546;28;20038;-73
2023/01/06 00:08:55;;;;;;;4.30;2.40;;;11.00;91.80;;;;;;5101463;28;20050;-74
2023/01/06 00:11:21;;;;;;;3.97;2.13;;;11.00;91.80;;;;;;5100871;28;20122;-74
2023/01/06 00:13:47;;;;;;;3.17;1.92;;;11.00;91.80;;;;;;5136605;28;20043;-73
2023/01/06 00:16:17;;;;;;;3.47;1.83;;;11.00;91.80;;;;;;5137247;28;20042;-75
2023/01/06 00:18:43;;;;;;;3.67;1.70;;;11.00;91.80;;;;;;5101940;28;20043;-75
2023/01/06 00:21:09;;;;;;;2.90;1.52;;;11.00;91.80;;;;;;5101136;28;20486;-75
2023/01/06 00:23:36;;;;;;;1.90;1.23;;;11.00;91.80;;;;;;5139314;28;20127;-75
2023/01/06 00:26:04;;;;;;;2.83;1.63;;;11.00;91.80;;;;;;5129143;28;20050;-75
2023/01/06 00:28:29;;;;;;;2.55;1.33;;;10.90;91.70;;;;;;5132740;28;20058;-75
2023/01/06 00:30:55;;;;;;;2.67;1.20;;;10.80;91.70;;;;;;5105429;28;20035;-74
2023/01/06 00:33:21;;;;;;;3.15;1.50;;;10.90;91.80;;;;;;5122623;28;20384;-75
2023/01/06 00:35:47;;;;;;;2.22;1.30;;;10.90;91.80;;;;;;5084830;28;20486;-75
2023/01/06 00:38:13;;;;;;;2.42;1.45;;;10.90;91.80;;;;;;5119319;28;20499;-74
2023/01/06 00:40:38;;;;;;;1.52;1.17;;;10.90;91.80;;;;;;5101325;28;20031;-75
2023/01/06 00:43:04;;;;;;;1.58;1.33;;;10.90;91.80;;;;;;5117240;28;20047;-74
2023/01/06 00:45:30;;;;;;;1.23;1.08;;;10.90;91.80;;;;;;5102807;28;20039;-74
2023/01/06 00:47:56;;;;;;;1.73;1.00;;;10.80;91.70;;;;;;5140558;28;20035;-74
2023/01/06 00:50:21;;;;;;;1.83;1.10;;;10.90;91.80;;;;;;5123537;28;20059;-75
2023/01/06 00:52:48;;;;;;;2.55;1.20;;;10.80;91.70;;;;;;5118269;28;20085;-75
2023/01/06 00:55:13;;;;;;;3.00;1.33;;;10.90;91.80;;;;;;5089271;28;20035;-75
2023/01/06 00:57:39;;;;;;;2.17;1.10;;;10.90;91.70;;;;;;5107017;28;20061;-75
2023/01/06 01:00:07;;;;;;;3.45;1.38;;;10.80;91.70;;;;;;5103629;28;20432;-75
2023/01/06 01:02:32;;;;;;;2.25;1.38;;;10.90;91.70;;;;;;5137387;28;20046;-74
2023/01/06 01:04:58;;;;;;;2.67;1.30;;;10.90;91.70;;;;;;5118188;28;20107;-74
2023/01/06 01:07:24;;;;;;;2.38;1.30;;;10.90;91.70;;;;;;5140375;28;20039;-75
2023/01/06 01:09:49;;;;;;;1.27;1.02;;;10.90;91.70;;;;;;5088850;28;20554;-75
2023/01/06 01:12:15;;;;;;;1.48;1.15;;;10.90;91.70;;;;;;5137313;28;20050;-75
2023/01/06 01:14:46;;;;;;;2.03;1.20;;;10.90;91.70;;;;;;5103374;28;20119;-74
2023/01/06 01:17:15;;;;;;;2.33;1.17;;;10.90;91.70;;;;;;5107096;28;20067;-75
2023/01/06 01:19:40;;;;;;;1.40;0.90;;;10.90;91.70;;;;;;5092453;28;20038;-75
2023/01/06 01:22:07;;;;;;;1.65;1.00;;;10.90;91.70;;;;;;5142927;28;20043;-76
2023/01/06 01:24:34;;;;;;;2.30;1.10;;;10.90;91.70;;;;;;5127016;28;20051;-75
2023/01/06 01:26:59;;;;;;;1.95;1.17;;;10.90;91.70;;;;;;5094748;28;20023;-75
2023/01/06 01:29:25;;;;;;;1.13;1.00;;;10.90;91.70;;;;;;5130917;28;20023;-75
2023/01/06 01:31:51;;;;;;;1.45;0.90;;;10.90;91.70;;;;;;5109604;28;20531;-77
2023/01/06 01:34:17;;;;;;;1.00;0.70;;;10.90;91.70;;;;;;5107077;28;20455;-75
2023/01/06 01:36:46;;;;;;;1.85;0.95;;;10.90;91.70;;;;;;5119338;28;20096;-74
2023/01/06 01:39:13;;;;;;;1.27;1.00;;;10.90;91.70;;;;;;5106861;28;20067;-75
2023/01/06 01:41:39;;;;;;;1.58;1.20;;;10.90;91.70;;;;;;5100886;28;20062;-74
2023/01/06 01:44:43;;;;;;;1.88;1.08;;;10.90;91.70;;;;;;5117859;28;20077;-74
2023/01/06 01:47:12;;;;;;;1.23;0.95;;;10.90;91.70;;;;;;5116617;28;20088;-74
2023/01/06 01:49:41;;;;;;;0.88;0.88;;;10.90;91.60;;;;;;5135744;28;20090;-74
2023/01/06 01:52:08;;;;;;;1.92;0.90;;;10.90;91.60;;;;;;5100179;28;20047;-74
2023/01/06 01:54:35;;;;;;;1.20;0.98;;;10.90;91.60;;;;;;5104801;28;20490;-76
2023/01/06 01:57:07;;;;;;;1.50;0.98;;;10.90;91.60;;;;;;5105775;28;20043;-75
2023/01/06 01:59:36;;;;;;;1.63;1.02;;;10.90;91.60;;;;;;5118956;28;20119;-74
2023/01/06 02:02:02;;;;;;;1.35;0.90;;;10.90;91.60;;;;;;5100796;28;20059;-75
2023/01/06 02:04:28;;;;;;;1.70;1.15;;;11.00;91.60;;;;;;5085251;28;20043;-76
2023/01/06 02:06:54;;;;;;;0.90;0.60;;;11.00;91.60;;;;;;5116623;28;20031;-74
2023/01/06 02:09:26;;;;;;;1.60;0.90;;;11.00;91.60;;;;;;5102835;28;20027;-76
2023/01/06 02:11:52;;;;;;;1.08;0.98;;;10.90;91.50;;;;;;5089919;28;20039;-75
2023/01/06 02:14:21;;;;;;;1.65;1.05;;;11.00;91.50;;;;;;5124210;28;20092;-75
2023/01/06 02:17:14;;;;;;;1.40;1.00;;;10.90;91.50;;;;;;5085955;28;20436;-74
2023/01/06 02:20:13;;;;;;;1.55;0.98;;;11.00;91.40;;;;;;5105212;28;20035;-76
2023/01/06 02:23:10;;;;;;;1.73;0.80;;;11.00;91.40;;;;;;5104498;28;20043;-74
2023/01/06 02:26:14;;;;;;;1.33;0.82;;;11.00;91.40;;;;;;5118713;28;20126;-74
2023/01/06 02:29:14;;;;;;;2.38;1.08;;;11.00;91.40;;;;;;5120061;28;20035;-75
2023/01/06 02:32:04;;;;;;;1.60;1.00;;;11.00;91.40;;;;;;5111002;28;20035;-75
2023/01/06 02:34:54;;;;;;;2.17;0.80;;;11.10;91.40;;;;;;5120713;28;20478;-75
2023/01/06 02:37:55;;;;;;;1.33;0.70;;;11.00;91.40;;;;;;5105693;28;20039;-75
2023/01/06 02:40:48;;;;;;;1.10;0.75;;;10.90;91.40;;;;;;5103955;28;20071;-75
2023/01/06 02:43:27;;;;;;;0.95;0.60;;;10.90;91.40;;;;;;5085173;28;20521;-75
2023/01/06 02:46:07;;;;;;;0.95;0.73;;;10.90;91.40;;;;;;5083439;28;20066;-73
2023/01/06 02:49:05;;;;;;;1.23;0.80;;;10.80;91.40;;;;;;5134097;28;20031;-74
2023/01/06 02:51:43;;;;;;;1.27;0.80;;;10.90;91.50;;;;;;5116818;28;20078;-74
2023/01/06 02:54:33;;;;;;;1.52;0.70;;;10.80;91.50;;;;;;5114897;28;20099;-74
2023/01/06 02:57:17;;;;;;;0.70;0.70;;;10.80;91.50;;;;;;5118311;28;20110;-74
2023/01/06 02:59:52;;;;;;;1.02;0.70;;;10.80;91.50;;;;;;5133885;28;20038;-74
2023/01/06 03:02:19;;;;;;;1.33;0.80;;;10.80;91.50;;;;;;5133690;28;20051;-74
2023/01/06 03:04:47;;;;;;;0.63;0.50;;;10.80;91.50;;;;;;5134518;28;20039;-74
2023/01/06 03:07:14;;;;;;;1.05;0.60;;;10.80;91.50;;;;;;5097614;28;20035;-74
2023/01/06 03:09:41;;;;;;;1.70;0.90;;;10.80;91.50;;;;;;5132957;28;20043;-74
2023/01/06 03:12:14;;;;;;;1.70;0.55;;;10.80;91.80;;;;;;5114732;28;20126;-74
2023/01/06 03:14:45;;;;;;;1.17;0.68;;;10.80;91.50;;;;;;5097875;28;20031;-75
2023/01/06 03:17:11;;;;;;;0.77;0.60;;;10.80;91.50;;;;;;5133924;28;20047;-74
2023/01/06 03:19:38;;;;;;;0.88;0.65;;;10.80;91.50;;;;;;5133108;28;20394;-74
2023/01/06 03:22:06;;;;;;;0.98;0.73;;;10.80;91.50;;;;;;5115749;28;20042;-74
2023/01/06 03:24:35;;;;;;;1.50;0.90;;;10.80;91.50;;;;;;5114522;28;20067;-75
2023/01/06 03:27:02;;;;;;;2.15;0.60;;;10.80;91.50;;;;;;5133603;28;20023;-74
2023/01/06 03:29:27;;;;;;;0.60;0.50;;;10.80;91.50;;;;;;5114737;28;20477;-74
2023/01/06 03:32:31;;;;;;;0.80;0.70;;;10.90;91.50;;;;;;5133306;28;20075;-74
2023/01/06 03:35:18;;;;;;;0.93;0.57;;;10.80;91.40;;;;;;5117538;28;20139;-74
2023/01/06 03:37:57;;;;;;;0.70;0.60;;;10.80;91.40;;;;;;5132401;28;20490;-74
2023/01/06 03:40:43;;;;;;;0.85;0.68;;;10.80;91.40;;;;;;5134445;27;20043;-74
2023/01/06 03:43:24;;;;;;;1.77;0.70;;;10.80;91.40;;;;;;5101272;28;20387;-74
2023/01/06 03:46:07;;;;;;;0.60;0.50;;;10.80;91.40;;;;;;5136702;28;20047;-74
2023/01/06 03:48:52;;;;;;;0.60;0.43;;;10.80;91.30;;;;;;5119849;28;20062;-74
2023/01/06 03:51:52;;;;;;;1.23;0.65;;;10.80;91.30;;;;;;5136197;28;20043;-74
2023/01/06 03:54:53;;;;;;;1.85;0.80;;;10.80;91.30;;;;;;5123128;28;20039;-74
2023/01/06 03:57:25;;;;;;;1.58;0.60;;;10.80;91.60;;;;;;5135018;28;20027;-74
2023/01/06 03:59:57;;;;;;;1.17;0.73;;;10.80;91.30;;;;;;5136035;28;20082;-75
2023/01/06 04:02:24;;;;;;;1.15;0.70;;;10.80;91.30;;;;;;5117261;28;20051;-73
2023/01/06 04:05:07;;;;;;;1.48;0.70;;;10.80;91.20;;;;;;5100776;28;20375;-74
2023/01/06 04:07:33;;;;;;;0.95;0.65;;;10.90;91.20;;;;;;5135727;28;20046;-74
2023/01/06 04:09:58;;;;;;;0.45;0.45;;;10.90;91.20;;;;;;5117457;28;20039;-74
2023/01/06 04:12:39;;;;;;;1.60;0.90;;;10.90;91.20;;;;;;5136116;28;20134;-74
2023/01/06 04:15:13;;;;;;;0.95;0.45;;;10.80;91.20;;;;;;5119747;28;20062;-74
2023/01/06 04:17:40;;;;;;;0.63;0.47;;;10.90;91.20;;;;;;5135709;28;20118;-74
2023/01/06 04:20:09;;;;;;;1.38;0.60;;;10.90;91.10;;;;;;5117557;28;20050;-74
2023/01/06 04:22:35;;;;;;;1.13;0.60;;;10.90;91.10;;;;;;5100264;28;20482;-73
2023/01/06 04:25:02;;;;;;;1.38;0.52;;;10.90;91.10;;;;;;5117927;28;20043;-74
2023/01/06 04:27:27;;;;;;;1.50;0.77;;;10.90;91.10;;;;;;5135969;28;20164;-74
2023/01/06 04:29:53;;;;;;;1.10;0.40;;;10.90;91.10;;;;;;5135591;28;20471;-74
2023/01/06 04:32:19;;;;;;;1.38;0.40;;;10.90;91.10;;;;;;5135490;28;20035;-74
2023/01/06 04:34:44;;;;;;;1.15;0.65;;;10.90;91.00;;;;;;5135774;28;20035;-74
2023/01/06 04:37:10;;;;;;;0.73;0.52;;;10.90;91.00;;;;;;5117244;28;20057;-74
2023/01/06 04:39:36;;;;;;;0.95;0.50;;;10.90;91.00;;;;;;5135778;28;20092;-74
2023/01/06 04:42:02;;;;;;;0.65;0.43;;;10.90;91.00;;;;;;5116766;28;20042;-74
2023/01/06 04:44:27;;;;;;;1.33;0.45;;;10.90;90.90;;;;;;5100910;28;20083;-74
2023/01/06 04:46:53;;;;;;;1.27;0.47;;;10.90;90.90;;;;;;5135277;28;20035;-75
2023/01/06 04:49:19;;;;;;;0.30;0.30;;;11.00;90.90;;;;;;5117627;28;20074;-74
2023/01/06 04:51:44;;;;;;;1.85;0.50;;;10.90;90.90;;;;;;5116052;28;20530;-74
2023/01/06 04:54:11;;;;;;;0.73;0.50;;;10.90;90.90;;;;;;5117200;28;20038;-74
2023/01/06 04:56:37;;;;;;;1.33;0.57;;;10.90;90.90;;;;;;5135193;28;20038;-74
2023/01/06 04:59:02;;;;;;;1.80;0.60;;;11.00;90.90;;;;;;5116810;28;20031;-74
2023/01/06 05:01:28;;;;;;;0.57;0.57;;;11.00;90.80;;;;;;5117242;28;20040;-74
2023/01/06 05:03:54;;;;;;;1.90;0.55;;;10.90;90.80;;;;;;5135782;28;20036;-74
2023/01/06 05:06:19;;;;;;;0.98;0.60;;;11.00;90.80;;;;;;5116910;28;20039;-74
2023/01/06 05:08:46;;;;;;;1.13;0.63;;;10.90;90.80;;;;;;5135092;28;20031;-74
2023/01/06 05:11:15;;;;;;;1.10;0.70;;;11.00;90.80;;;;;;5116483;28;20039;-74
2023/01/06 05:13:41;;;;;;;1.90;0.60;;;10.90;90.80;;;;;;5135017;28;20050;-74
2023/01/06 05:16:10;;;;;;;1.67;0.65;;;10.90;90.80;;;;;;5116906;28;20039;-74
2023/01/06 05:18:36;;;;;;;0.70;0.60;;;10.90;90.70;;;;;;5135417;28;20370;-74
2023/01/06 05:21:02;;;;;;;1.52;0.60;;;10.90;90.70;;;;;;5136134;28;20050;-75
2023/01/06 05:23:27;;;;;;;2.05;0.80;;;11.00;90.70;;;;;;5116534;28;20078;-74
2023/01/06 05:25:53;;;;;;;0.60;0.60;;;11.00;90.60;;;;;;5134713;28;20045;-74
2023/01/06 05:28:19;;;;;;;0.77;0.50;;;11.00;90.60;;;;;;5135434;28;20470;-74
2023/01/06 05:30:45;;;;;;;1.10;0.70;;;11.00;90.60;;;;;;5099405;28;20043;-74
2023/01/06 05:33:11;;;;;;;0.77;0.60;;;11.00;90.60;;;;;;5134842;28;20512;-74
2023/01/06 05:35:37;;;;;;;1.05;0.75;;;11.00;90.60;;;;;;5134956;28;20067;-74
2023/01/06 05:38:02;;;;;;;1.48;0.90;;;11.00;90.60;;;;;;5099240;28;20402;-74
2023/01/06 05:40:28;;;;;;;3.55;0.70;;;11.00;90.50;;;;;;5134722;28;20046;-75
2023/01/06 05:42:55;;;;;;;1.27;0.60;;;11.00;90.50;;;;;;5134480;28;20043;-74
2023/01/06 05:45:21;;;;;;;0.98;0.55;;;11.00;90.50;;;;;;5115977;28;20040;-74
2023/01/06 05:47:47;;;;;;;1.45;0.43;;;11.00;90.50;;;;;;5134675;28;20107;-75
2023/01/06 05:50:12;;;;;;;2.20;0.55;;;11.00;90.50;;;;;;5134847;28;20043;-74
2023/01/06 05:52:38;;;;;;;0.77;0.40;;;11.00;90.50;;;;;;5116070;28;20486;-75
2023/01/06 05:55:04;;;;;;;1.17;0.57;;;11.00;90.50;;;;;;5115925;28;20051;-74
2023/01/06 05:57:34;;;;;;;0.93;0.60;;;11.00;90.50;;;;;;5134566;28;20043;-74
2023/01/06 06:00:00;;;;;;;3.40;0.60;;;11.00;90.50;;;;;;5134494;28;20047;-74
2023/01/06 06:02:25;;;;;;;0.52;0.50;;;11.10;90.50;;;;;;5134058;27;20099;-74
2023/01/06 06:04:51;;;;;;;0.52;0.40;;;11.00;90.50;;;;;;5134543;28;20039;-74
2023/01/06 06:07:17;;;;;;;0.73;0.57;;;11.00;90.50;;;;;;5115638;28;20104;-74
2023/01/06 06:09:42;;;;;;;1.05;0.63;;;11.10;90.50;;;;;;5133887;28;20084;-74
2023/01/06 06:12:08;;;;;;;1.17;0.73;;;11.10;90.50;;;;;;5099181;28;20533;-75
2023/01/06 06:14:34;;;;;;;0.70;0.70;;;11.10;90.40;;;;;;5134361;28;20488;-75
2023/01/06 06:16:59;;;;;;;1.55;0.90;;;11.10;90.40;;;;;;5115347;28;20497;-75
2023/01/06 06:19:25;;;;;;;0.57;0.57;;;11.10;90.30;;;;;;5116158;28;20074;-74
2023/01/06 06:21:52;;;;;;;1.02;0.70;;;11.10;90.30;;;;;;5134333;28;20063;-75
2023/01/06 06:24:17;;;;;;;0.60;0.60;;;11.00;90.40;;;;;;5134455;28;20459;-75
2023/01/06 06:26:43;;;;;;;0.98;0.65;;;11.00;90.40;;;;;;5133826;28;20039;-75
2023/01/06 06:29:09;;;;;;;0.80;0.70;;;11.00;90.40;;;;;;5081729;28;20034;-75
2023/01/06 06:31:35;;;;;;;0.90;0.65;;;11.00;90.50;;;;;;5134338;28;20031;-75
2023/01/06 06:34:02;;;;;;;1.52;0.68;;;11.00;90.50;;;;;;5133857;28;20042;-75
2023/01/06 06:36:29;;;;;;;0.57;0.52;;;11.00;90.50;;;;;;5133676;28;20042;-75
2023/01/06 06:38:55;;;;;;;0.77;0.57;;;10.90;90.50;;;;;;5115400;28;20047;-75
2023/01/06 06:41:23;;;;;;;1.30;0.60;;;11.00;90.50;;;;;;5133642;28;20034;-75
2023/01/06 06:43:49;;;;;;;0.50;0.40;;;11.00;90.50;;;;;;5134027;28;20478;-74
2023/01/06 06:46:15;;;;;;;0.88;0.60;;;11.00;90.50;;;;;;5115157;28;20417;-74
2023/01/06 06:48:41;;;;;;;0.80;0.60;;;11.00;90.60;;;;;;5133425;28;20039;-74
2023/01/06 06:51:11;;;;;;;0.52;0.52;;;11.00;90.60;;;;;;5133483;28;20126;-74
2023/01/06 06:53:37;;;;;;;0.65;0.60;;;11.00;90.60;;;;;;5115107;28;20066;-75
2023/01/06 06:56:04;;;;;;;1.23;0.68;;;11.00;90.60;;;;;;5114857;28;20043;-74
2023/01/06 06:58:30;;;;;;;0.82;0.60;;;11.10;90.50;;;;;;5115104;28;20089;-75
2023/01/06 07:00:56;;;;;;;0.82;0.50;;;11.00;90.50;;;;;;5115129;28;20051;-74
2023/01/06 07:03:22;;;;;;;2.47;0.80;;;11.10;90.50;;;;;;5114804;28;20051;-74
2023/01/06 07:05:49;;;;;;;0.60;0.60;;;11.00;90.50;;;;;;5133215;28;20043;-75
2023/01/06 07:08:16;;;;;;;1.40;0.90;;;11.00;90.50;;;;;;5114859;28;20039;-74
2023/01/06 07:10:41;;;;;;;1.17;0.80;;;11.00;90.50;;;;;;5133303;28;20031;-75
2023/01/06 07:13:07;;;;;;;0.80;0.60;;;11.00;90.50;;;;;;5133131;28;20043;-74
2023/01/06 07:15:33;;;;;;;0.93;0.80;;;11.00;90.50;;;;;;5135029;27;20047;-74
2023/01/06 07:18:01;;;;;;;0.95;0.70;;;11.00;90.50;;;;;;5137049;28;20500;-75
2023/01/06 07:20:27;;;;;;;0.70;0.70;;;11.00;90.50;;;;;;5137360;28;20039;-75
2023/01/06 07:22:53;;;;;;;0.70;0.70;;;11.00;90.50;;;;;;5118143;28;20062;-75
2023/01/06 07:25:19;;;;;;;1.40;0.80;;;11.00;90.50;;;;;;5136544;28;20039;-74
2023/01/06 07:27:44;;;;;;;0.60;0.60;;;10.90;90.50;;;;;;5118606;28;20035;-75
2023/01/06 07:30:11;;;;;;;1.15;0.80;;;11.10;90.60;;;;;;5136434;28;20039;-75
2023/01/06 07:32:37;;;;;;;1.33;0.73;;;10.90;90.60;;;;;;5118810;28;20047;-74
2023/01/06 07:35:02;;;;;;;0.98;0.90;;;10.90;90.60;;;;;;5118291;28;20047;-75
2023/01/06 07:37:28;;;;;;;0.70;0.70;;;10.90;90.60;;;;;;5136340;28;20122;-75
2023/01/06 07:39:54;;;;;;;1.40;1.10;;;10.90;90.70;;;;;;5136301;28;20035;-74
2023/01/06 07:42:19;;;;;;;0.90;0.90;;;10.80;90.70;;;;;;5136155;28;20457;-76
2023/01/06 07:44:45;;;;;;;1.10;1.00;;;10.80;90.80;;;;;;5118337;28;20052;-75
2023/01/06 07:47:11;;;;;;;0.80;0.80;;;10.80;90.80;;;;;;5136772;28;20062;-76
2023/01/06 07:49:36;;;;;;;1.45;1.20;;;10.70;90.80;;;;;;5118079;28;20048;-75
2023/01/06 07:52:02;;;;;;;1.40;1.00;;;10.70;90.90;;;;;;5136281;28;20039;-76
2023/01/06 07:54:27;;;;;;;1.73;1.30;;;10.70;90.90;;;;;;5136890;28;20043;-76
2023/01/06 07:56:53;;;;;;;1.60;1.20;;;10.60;91.00;;;;;;5136358;28;20087;-76
2023/01/06 07:59:19;;;;;;;2.47;1.40;;;10.60;91.10;;;;;;5136816;28;20130;-75
2023/01/06 08:01:44;;;;;;;1.27;1.08;;;10.60;91.10;;;;;;5136085;28;20054;-76
2023/01/06 08:04:10;;;;;;;1.58;1.13;;;10.60;91.20;;;;;;5136772;28;20100;-75
2023/01/06 08:06:39;;;;;;;1.58;1.20;;;10.50;91.20;;;;;;5136753;28;20046;-75
2023/01/06 08:09:04;;;;;;;2.17;1.60;;;10.50;91.30;;;;;;5136014;28;20039;-76
2023/01/06 08:11:30;;;;;;;1.65;1.40;;;10.50;91.30;;;;;;5136122;28;20816;-76
2023/01/06 08:13:55;;;;;;;1.50;1.23;;;10.50;91.40;;;;;;5117675;28;20432;-76
2023/01/06 08:16:21;;;;;;;2.03;1.20;;;10.60;91.40;;;;;;5117717;28;20051;-76
2023/01/06 08:18:47;;;;;;;1.67;1.48;;;10.50;91.40;;;;;;5117761;28;20059;-76
2023/01/06 08:21:12;;;;;;;1.75;1.58;;;10.50;91.50;;;;;;5136369;28;20043;-76
2023/01/06 08:23:38;;;;;;;1.60;1.30;;;10.50;91.50;;;;;;5117547;28;20533;-76
2023/01/06 08:26:08;;;;;;;1.58;1.30;;;10.50;91.50;;;;;;5136044;27;20038;-76
2023/01/06 08:28:34;;;;;;;1.30;1.20;;;10.40;91.60;;;;;;5135716;28;20067;-76
2023/01/06 08:31:00;;;;;;;1.50;1.38;;;10.50;91.60;;;;;;5117989;28;20083;-77
2023/01/06 08:33:26;;;;;;;1.30;1.20;;;10.50;91.70;;;;;;5135995;28;20043;-76
2023/01/06 08:35:58;;;;;;;1.30;1.20;;;10.40;91.70;;;;;;5117892;28;20459;-76
2023/01/06 08:38:24;;;;;;;1.30;1.20;;;10.40;91.80;;;;;;5136045;28;20126;-76
2023/01/06 08:40:52;;;;;;;1.30;1.20;;;10.40;91.70;;;;;;5135906;28;20070;-76
2023/01/06 08:43:18;;;;;;;1.40;1.30;;;10.40;91.80;;;;;;5135654;28;20092;-76
2023/01/06 08:45:44;;;;;;;1.20;1.10;;;10.40;91.80;;;;;;5117026;28;20393;-76
2023/01/06 08:48:10;;;;;;;1.77;1.30;;;10.40;91.80;;;;;;5117508;28;20035;-76
2023/01/06 08:50:38;;;;;;;1.90;1.30;;;10.40;91.80;;;;;;5135558;28;20031;-76
2023/01/06 08:53:04;;;;;;;1.20;1.10;;;10.40;92.10;;;;;;5135386;28;20066;-76
2023/01/06 08:55:29;;;;;;;0.98;0.90;;;10.40;91.90;;;;;;5135329;28;20047;-76
2023/01/06 08:57:55;;;;;;;1.10;1.00;;;10.40;91.90;;;;;;5116981;28;20083;-76
2023/01/06 09:00:21;;;;;;;1.45;1.23;;;10.40;91.90;;;;;;5135642;28;20031;-76
2023/01/06 09:02:47;;;;;;;1.30;1.15;;;10.40;91.90;;;;;;5099535;28;20043;-76
2023/01/06 09:05:12;;;;;;;1.50;1.10;;;10.50;91.90;;;;;;5135173;28;20042;-76
2023/01/06 09:07:38;;;;;;;1.58;1.10;;;10.50;91.80;;;;;;5116730;28;20047;-76
2023/01/06 09:10:04;;;;;;;2.45;1.15;;;10.50;91.80;;;;;;5116657;28;20084;-76
2023/01/06 09:12:30;;;;;;;1.00;0.90;;;10.50;91.80;;;;;;5116638;28;20047;-76
2023/01/06 09:14:55;;;;;;;0.90;0.90;;;10.50;91.80;;;;;;5117226;28;20356;-76
2023/01/06 09:17:21;;;;;;;1.10;1.00;;;10.50;91.80;;;;;;5135096;28;20127;-76
2023/01/06 09:19:46;;;;;;;1.40;0.90;;;10.50;91.80;;;;;;5135448;28;20039;-75
2023/01/06 09:22:12;;;;;;;1.95;0.88;;;10.50;92.10;;;;;;5134764;28;20092;-76
2023/01/06 09:24:37;;;;;;;1.10;0.77;;;10.60;91.80;;;;;;5135546;28;20363;-76
2023/01/06 09:27:03;;;;;;;0.75;0.75;;;10.50;91.80;;;;;;5099567;28;20501;-77
2023/01/06 09:29:29;;;;;;;1.80;0.80;;;10.50;91.80;;;;;;5135379;28;20035;-75
2023/01/06 09:31:54;;;;;;;1.05;0.75;;;10.50;91.80;;;;;;5116231;28;20034;-75
2023/01/06 09:34:20;;;;;;;0.63;0.52;;;10.60;91.90;;;;;;5134433;28;20117;-75
2023/01/06 09:36:48;;;;;;;0.90;0.65;;;10.60;91.90;;;;;;5135285;28;20035;-75
2023/01/06 09:39:14;;;;;;;0.70;0.60;;;10.70;91.80;;;;;;5099139;28;20050;-75
2023/01/06 09:42:01;;;;;;;0.80;0.68;;;10.80;91.80;;;;;;5099739;28;20047;-75
2023/01/06 09:44:32;;;;;;;1.33;0.55;;;10.90;91.70;;;;;;5118544;28;20386;-75
2023/01/06 09:47:00;;;;;;;1.45;0.70;;;11.00;91.70;;;;;;5134966;28;20063;-75
2023/01/06 09:49:36;;;;;;;1.05;0.60;;;11.00;91.60;;;;;;5115965;28;20562;-75
2023/01/06 09:52:12;;;;;;;0.85;0.80;;;11.00;91.50;;;;;;5116179;28;20478;-74
2023/01/06 09:54:50;;;;;;;0.70;0.70;;;11.00;91.40;;;;;;5134800;28;20039;-75
2023/01/06 09:57:25;;;;;;;1.23;0.68;;;11.10;91.50;;;;;;5115907;28;20080;-75
2023/01/06 09:59:58;;;;;;;1.23;0.55;;;11.00;91.50;;;;;;5134264;28;20075;-75
2023/01/06 10:02:33;;;;;;;1.85;0.60;;;11.00;91.50;;;;;;5115508;28;20119;-75
2023/01/06 10:04:59;;;;;;;2.22;0.60;;;11.00;91.60;;;;;;5099359;28;20077;-74
2023/01/06 10:07:45;;;;;;;1.08;0.55;;;11.00;91.60;;;;;;5116234;28;20054;-75
2023/01/06 10:10:28;;;;;;;0.93;0.65;;;11.00;91.60;;;;;;5134343;28;20031;-74
2023/01/06 10:13:34;;;;;;;0.93;0.60;;;10.90;91.60;;;;;;5133849;28;20039;-75
2023/01/06 10:16:10;;;;;;;1.80;0.70;;;10.90;91.60;;;;;;5133689;28;20394;-75
2023/01/06 10:18:53;;;;;;;2.85;0.68;;;10.90;91.60;;;;;;5115316;28;20486;-75
2023/01/06 10:21:41;;;;;;;1.00;0.60;;;10.90;91.60;;;;;;5115418;28;20474;-75
2023/01/06 10:24:31;;;;;;;0.73;0.32;;;10.90;91.60;;;;;;5115513;28;20063;-75
2023/01/06 10:27:05;;;;;;;0.67;0.60;;;11.00;91.60;;;;;;5133853;28;20486;-75
2023/01/06 10:29:35;;;;;;;0.68;0.52;;;11.00;91.50;;;;;;5115436;28;20035;-74
2023/01/06 10:32:04;;;;;;;0.27;0.27;;;11.00;91.50;;;;;;5116007;28;20031;-74
2023/01/06 10:34:33;;;;;;;0.98;0.40;;;11.00;91.50;;;;;;5133360;28;20272;-75
2023/01/06 10:37:22;;;;;;;0.95;0.55;;;11.10;91.50;;;;;;5115848;28;20032;-74
2023/01/06 10:39:57;;;;;;;1.13;0.50;;;11.10;91.50;;;;;;5133630;28;20035;-74
2023/01/06 10:45:38;;;;;;;0.30;0.30;;;11.10;91.40;;;;;;5133428;28;20122;-74
2023/01/06 10:48:06;;;;;;;0.32;0.30;;;11.20;91.40;;;;;;5133461;28;20043;-74
2023/01/06 10:50:33;;;;;;;1.00;0.65;;;11.10;91.40;;;;;;5132808;27;20100;-74
2023/01/06 10:52:59;;;;;;;0.40;0.35;;;11.20;91.30;;;;;;5133453;28;20074;-74
2023/01/06 10:55:47;;;;;;;1.13;0.57;;;11.20;91.20;;;;;;5114974;28;20089;-74
2023/01/06 10:58:36;;;;;;;0.73;0.43;;;11.20;91.20;;;;;;5133419;28;20122;-74
2023/01/06 11:01:11;;;;;;;3.42;1.00;;;11.20;91.20;;;;;;5117658;28;20039;-74
2023/01/06 11:03:41;;;;;;;1.48;0.50;;;11.20;91.10;;;;;;5133210;28;20039;-74
2023/01/06 11:06:17;;;;;;;2.50;0.80;;;11.30;91.10;;;;;;5098975;28;20134;-75
2023/01/06 11:08:43;;;;;;;2.50;0.70;;;11.30;91.00;;;;;;5114737;28;20035;-74
2023/01/06 11:11:14;;;;;;;2.78;0.70;;;11.30;90.90;;;;;;5133253;28;20038;-74
2023/01/06 11:13:44;;;;;;;0.83;0.40;;;11.20;90.80;;;;;;5133190;28;20046;-74
2023/01/06 11:16:23;;;;;;;1.20;0.30;;;11.30;90.90;;;;;;5114691;28;20134;-74
2023/01/06 11:18:53;;;;;;;0.85;0.40;;;11.20;90.80;;;;;;5133235;28;20912;-75
2023/01/06 11:21:20;;;;;;;2.00;0.60;;;11.30;90.80;;;;;;5133502;28;20067;-74
2023/01/06 11:23:47;;;;;;;1.83;0.40;;;11.20;90.80;;;;;;5132987;28;20039;-74
2023/01/06 11:26:18;;;;;;;2.88;0.43;;;11.40;90.80;;;;;;5133041;28;20043;-74
2023/01/06 11:28:46;;;;;;;1.38;0.40;;;11.30;90.70;;;;;;5132882;28;20031;-74
2023/01/06 11:31:19;;;;;;;0.70;0.40;;;11.30;90.70;;;;;;5114770;28;20055;-74
2023/01/06 11:33:53;;;;;;;1.35;0.40;;;11.20;90.60;;;;;;5115180;28;20095;-74
2023/01/06 11:36:22;;;;;;;1.67;0.40;;;11.30;90.60;;;;;;5132935;28;20439;-74
2023/01/06 11:38:53;;;;;;;0.77;0.30;;;11.20;90.60;;;;;;5133390;28;20386;-73
2023/01/06 11:41:29;;;;;;;1.90;0.40;;;11.20;90.60;;;;;;5115344;28;20478;-73
2023/01/06 11:44:04;;;;;;;0.93;0.35;;;11.30;90.60;;;;;;5114477;28;20096;-73
2023/01/06 11:46:30;;;;;;;1.17;0.40;;;11.40;90.50;;;;;;5132808;28;20042;-73
2023/01/06 11:49:11;;;;;;;0.43;0.20;;;11.40;90.50;;;;;;5097424;28;20118;-73
2023/01/06 11:51:47;;;;;;;1.40;0.38;;;11.30;90.40;;;;;;5133333;28;20047;-73
2023/01/06 11:54:24;;;;;;;1.20;0.30;;;11.30;90.40;;;;;;5133379;28;20136;-73
2023/01/06 11:56:59;;;;;;;0.73;0.32;;;11.30;90.40;;;;;;5114293;28;20134;-74
2023/01/06 11:59:30;;;;;;;0.63;0.22;;;11.40;90.40;;;;;;5132540;28;20127;-74
2023/01/06 12:01:59;;;;;;;0.52;0.25;;;11.50;90.60;;;;;;5116384;28;20047;-74
2023/01/06 12:04:35;;;;;;;0.95;0.30;;;11.50;90.30;;;;;;5136682;28;20486;-74
2023/01/06 12:07:28;;;;;;;1.13;0.30;;;11.50;90.20;;;;;;5136142;28;20023;-73
2023/01/06 12:10:00;;;;;;;0.85;0.30;;;11.60;90.20;;;;;;5136441;28;20472;-73
2023/01/06 12:12:27;;;;;;;0.75;0.28;;;11.60;90.10;;;;;;5136514;28;20078;-76
2023/01/06 12:14:53;;;;;;;0.77;0.40;;;11.50;90.10;;;;;;5118048;28;20035;-74
2023/01/06 12:17:42;;;;;;;0.30;0.25;;;11.60;90.20;;;;;;5117955;28;20070;-74
2023/01/06 12:20:34;;;;;;;0.90;0.43;;;11.60;90.10;;;;;;5120807;28;20050;-75
2023/01/06 12:23:06;;;;;;;1.02;0.35;;;11.70;90.10;;;;;;5117368;28;20146;-74
2023/01/06 12:25:41;;;;;;;0.73;0.38;;;11.70;90.10;;;;;;5135715;28;20482;-75
2023/01/06 12:28:30;;;;;;;0.93;0.30;;;11.80;90.00;;;;;;5135517;28;20405;-74
2023/01/06 12:31:19;;;;;;;0.73;0.30;;;11.90;90.00;;;;;;5136047;28;20042;-75
2023/01/06 12:34:01;;;;;;;1.02;0.20;;;11.90;89.80;;;;;;5117094;28;20085;-75
2023/01/06 12:36:55;;;;;;;0.10;0.10;;;12.00;89.80;;;;;;5117253;28;20054;-74
2023/01/06 12:39:32;;;;;;;0.20;0.20;;;12.10;89.60;;;;;;5120464;28;20050;-74
2023/01/06 12:42:07;;;;;;;1.08;0.40;;;12.10;89.40;;;;;;5116890;28;20418;-75
2023/01/06 12:44:47;;;;;;;1.10;0.50;;;12.20;89.30;;;;;;5117249;28;20108;-75
2023/01/06 12:47:37;;;;;;;1.33;0.57;;;12.20;89.00;;;;;;5118780;28;20051;-75
2023/01/06 12:50:14;;;;;;;0.20;0.20;;;12.10;88.90;;;;;;5119334;28;20047;-75
2023/01/06 12:52:48;;;;;;;0.70;0.30;;;12.30;88.90;;;;;;5135532;28;20043;-74
2023/01/06 12:55:17;;;;;;;0.50;0.30;;;12.30;88.80;;;;;;5135280;28;20113;-75
2023/01/06 12:58:07;;;;;;;0.57;0.28;;;12.30;88.70;;;;;;5135469;28;20047;-75
2023/01/06 13:00:56;;;;;;;0.28;0.28;;;12.40;88.40;;;;;;5135170;28;20039;-75
2023/01/06 13:03:51;;;;;;;1.58;0.40;;;12.40;88.20;;;;;;5134896;28;20050;-74
2023/01/06 13:06:27;;;;;;;1.35;0.40;;;12.40;88.00;;;;;;5116683;28;20042;-74
2023/01/06 13:09:23;;;;;;;2.00;0.40;;;12.30;87.90;;;;;;5117964;28;20081;-75
2023/01/06 13:12:19;;;;;;;0.25;0.25;;;12.30;88.00;;;;;;5135007;27;20047;-75